Time;durP1;ratioP1;P1;durP2;ratioP2;P2;SDS_P1;SDS_P2;PMS_P1;PMS_P2;Temp;Humidity;BMP_temperature;BMP_pressure;BME280_temperature;BME280_humidity;BME280_pressure;Samples;Min_cycle;Max_cycle;Signal;HPM_P1;HPM_P2
2021/08/08 00:00:49;;;;;;;0.80;0.80;;;;;;;24.34;47.39;97600.63;5020829;28;20543;-86
2021/08/08 00:03:16;;;;;;;1.03;1.00;;;;;;;24.39;47.27;97607.97;5037595;28;20338;-86
2021/08/08 00:05:42;;;;;;;0.80;0.80;;;;;;;24.31;47.70;97598.41;5037304;28;20284;-86
2021/08/08 00:08:10;;;;;;;0.90;0.80;;;;;;;24.36;47.51;97601.22;5037104;28;20216;-87
2021/08/08 00:10:36;;;;;;;0.70;0.70;;;;;;;24.36;47.57;97608.44;5037353;28;20197;-86
2021/08/08 00:13:03;;;;;;;0.80;0.80;;;;;;;24.37;47.45;97615.38;5037056;28;20217;-86
2021/08/08 00:15:29;;;;;;;0.73;0.73;;;;;;;24.40;47.18;97619.47;5037334;28;20197;-87
2021/08/08 00:17:56;;;;;;;1.07;1.07;;;;;;;24.42;47.23;97618.19;5037383;28;20219;-86
2021/08/08 00:20:23;;;;;;;1.03;0.80;;;;;;;24.44;47.20;97626.00;5037380;28;20638;-86
2021/08/08 00:22:49;;;;;;;1.00;0.90;;;;;;;24.40;47.36;97630.16;5020760;28;20189;-86
2021/08/08 00:25:16;;;;;;;0.73;0.73;;;;;;;24.36;47.34;97624.44;5021350;28;20204;-87
2021/08/08 00:27:42;;;;;;;0.80;0.80;;;;;;;24.30;47.38;97626.13;5042352;28;20193;-88
2021/08/08 00:30:10;;;;;;;0.80;0.80;;;;;;;24.30;47.42;97628.78;5030860;28;20692;-86
2021/08/08 00:32:37;;;;;;;0.90;0.90;;;;;;;24.30;47.58;97628.78;5038068;28;20231;-86
2021/08/08 00:35:05;;;;;;;0.77;0.77;;;;;;;24.22;47.70;97634.41;5037025;28;20193;-86
2021/08/08 00:37:32;;;;;;;0.70;0.70;;;;;;;24.20;47.78;97636.44;5038254;28;20197;-86
2021/08/08 00:40:01;;;;;;;0.73;0.70;;;;;;;24.20;47.58;97634.63;5036819;28;20193;-86
2021/08/08 00:42:29;;;;;;;0.80;0.80;;;;;;;24.25;47.50;97636.63;5037605;28;20201;-86
2021/08/08 00:44:56;;;;;;;0.70;0.70;;;;;;;24.14;47.70;97640.81;5037105;28;20193;-86
2021/08/08 00:47:22;;;;;;;0.60;0.60;;;;;;;24.15;47.76;97641.63;5020531;28;20284;-87
2021/08/08 00:49:49;;;;;;;0.80;0.80;;;;;;;24.24;47.64;97635.00;5020387;28;20631;-86
2021/08/08 00:52:16;;;;;;;0.70;0.70;;;;;;;24.24;47.35;97646.47;5036902;28;20197;-86
2021/08/08 00:54:44;;;;;;;0.97;0.80;;;;;;;24.23;47.53;97646.69;5020510;28;20213;-86
2021/08/08 00:57:14;;;;;;;0.70;0.70;;;;;;;24.19;47.47;97646.31;5037065;28;20198;-87
2021/08/08 00:59:42;;;;;;;1.00;0.90;;;;;;;24.19;47.76;97642.81;5036618;28;20220;-87
2021/08/08 01:02:10;;;;;;;0.77;0.70;;;;;;;24.20;47.63;97647.09;5036707;28;20206;-87
2021/08/08 01:04:43;;;;;;;0.70;0.70;;;;;;;24.10;47.92;97640.44;5039293;28;20295;-86
2021/08/08 01:07:18;;;;;;;0.80;0.80;;;;;;;24.12;47.81;97644.72;5040516;28;20193;-86
2021/08/08 01:09:49;;;;;;;0.80;0.80;;;;;;;24.12;47.63;97634.06;5024258;28;20236;-86
2021/08/08 01:12:19;;;;;;;0.73;0.73;;;;;;;24.12;47.80;97644.72;5024251;28;20276;-87
2021/08/08 01:14:51;;;;;;;0.80;0.80;;;;;;;24.13;47.74;97639.19;5024246;28;20589;-86
2021/08/08 01:17:21;;;;;;;1.03;0.80;;;;;;;24.13;47.51;97633.03;5041210;28;20205;-86
2021/08/08 01:19:57;;;;;;;0.50;0.50;;;;;;;24.15;47.70;97639.78;5040215;28;20530;-86
2021/08/08 01:22:27;;;;;;;1.57;0.70;;;;;;;24.17;47.46;97642.22;5040203;28;20588;-86
2021/08/08 01:24:55;;;;;;;0.93;0.80;;;;;;;24.14;47.73;97645.31;5023612;28;20634;-85
2021/08/08 01:27:22;;;;;;;0.80;0.80;;;;;;;24.13;47.80;97643.69;5040025;28;20221;-86
2021/08/08 01:29:52;;;;;;;0.70;0.70;;;;;;;24.13;47.65;97643.69;5039958;28;20544;-86
2021/08/08 01:32:20;;;;;;;0.70;0.70;;;;;;;24.16;47.51;97636.09;5023788;28;20209;-87
2021/08/08 01:34:47;;;;;;;0.83;0.83;;;;;;;24.15;47.62;97636.28;5023449;28;20217;-85
2021/08/08 01:37:18;;;;;;;1.10;0.70;;;;;;;24.14;47.53;97638.16;5040437;28;20201;-86
2021/08/08 01:39:53;;;;;;;0.77;0.77;;;;;;;24.14;47.69;97637.34;5040221;28;20232;-86
2021/08/08 01:42:22;;;;;;;0.80;0.80;;;;;;;24.16;47.62;97641.41;5040107;28;20197;-86
2021/08/08 01:44:54;;;;;;;0.77;0.77;;;;;;;24.17;47.40;97642.22;5039978;28;20292;-86
2021/08/08 01:47:36;;;;;;;0.80;0.70;;;;;;;24.16;47.54;97645.91;5039822;28;20197;-86
2021/08/08 01:50:13;;;;;;;0.77;0.60;;;;;;;24.13;47.42;97643.69;5024830;28;20204;-86
2021/08/08 01:52:43;;;;;;;0.70;0.70;;;;;;;24.12;47.70;97636.75;5039928;28;20216;-86
2021/08/08 01:55:15;;;;;;;0.80;0.80;;;;;;;24.09;47.66;97638.81;5039861;28;20210;-87
2021/08/08 01:57:51;;;;;;;1.37;0.73;;;;;;;24.07;47.69;97640.88;5039512;28;20249;-86
2021/08/08 02:00:25;;;;;;;0.80;0.70;;;;;;;24.01;47.65;97641.69;5023831;28;20197;-86
2021/08/08 02:02:56;;;;;;;0.70;0.70;;;;;;;24.03;47.78;97634.31;5039988;28;20204;-87
2021/08/08 02:05:38;;;;;;;0.77;0.77;;;;;;;24.12;47.58;97648.19;5025491;28;20323;-87
2021/08/08 02:08:05;;;;;;;0.60;0.60;;;;;;;24.10;47.64;97652.94;5023186;28;20271;-87
2021/08/08 02:10:44;;;;;;;0.80;0.80;;;;;;;24.15;47.34;97655.78;5039639;28;20199;-87
2021/08/08 02:13:12;;;;;;;0.80;0.50;;;;;;;24.20;47.47;97657.78;5039100;28;20254;-87
2021/08/08 02:15:38;;;;;;;1.13;0.70;;;;;;;24.11;47.41;97657.22;5038766;28;20190;-86
2021/08/08 02:18:07;;;;;;;0.60;0.60;;;;;;;24.12;47.39;97655.38;5039169;28;20193;-87
2021/08/08 02:20:37;;;;;;;0.70;0.70;;;;;;;24.16;47.36;97659.25;5023725;28;20247;-87
2021/08/08 02:23:06;;;;;;;0.80;0.80;;;;;;;24.16;47.32;97669.91;5039052;28;20193;-86
2021/08/08 02:25:35;;;;;;;0.70;0.70;;;;;;;24.13;47.47;97667.69;5039283;28;20197;-86
2021/08/08 02:28:09;;;;;;;0.80;0.80;;;;;;;24.19;47.26;97674.81;5039285;28;20207;-86
2021/08/08 02:30:40;;;;;;;0.80;0.80;;;;;;;24.15;47.52;97681.59;5040014;28;20181;-86
2021/08/08 02:33:08;;;;;;;0.93;0.67;;;;;;;24.10;47.40;97671.59;5022720;28;20224;-86
2021/08/08 02:35:37;;;;;;;0.83;0.70;;;;;;;24.10;47.41;97674.25;5039533;28;20197;-86
2021/08/08 02:38:05;;;;;;;0.60;0.60;;;;;;;24.14;47.25;97677.31;5038856;28;20204;-86
2021/08/08 02:40:32;;;;;;;0.80;0.80;;;;;;;24.04;47.72;97673.28;5022399;28;20220;-86
2021/08/08 02:43:00;;;;;;;0.80;0.70;;;;;;;24.05;47.63;97677.59;5022591;28;20209;-87
2021/08/08 02:45:28;;;;;;;1.10;0.80;;;;;;;24.06;47.67;97679.22;5038648;28;20220;-87
2021/08/08 02:47:58;;;;;;;1.27;0.77;;;;;;;24.05;47.42;97682.91;5039517;28;20582;-86
2021/08/08 02:50:25;;;;;;;0.77;0.70;;;;;;;24.07;47.54;97690.69;5038586;28;20193;-86
2021/08/08 02:52:53;;;;;;;0.73;0.73;;;;;;;24.07;47.55;97691.50;5022708;28;20197;-87
2021/08/08 02:55:22;;;;;;;0.60;0.60;;;;;;;24.07;47.56;97696.84;5022674;28;20635;-86
2021/08/08 02:57:54;;;;;;;0.93;0.70;;;;;;;24.07;47.55;97691.50;5038679;28;20201;-86
2021/08/08 03:00:20;;;;;;;0.73;0.70;;;;;;;24.13;47.35;97699.66;5038276;28;20204;-86
2021/08/08 03:02:47;;;;;;;0.70;0.70;;;;;;;24.12;47.39;97695.38;5038275;28;20496;-87
2021/08/08 03:05:13;;;;;;;0.80;0.80;;;;;;;24.06;47.54;97700.53;5056540;28;20182;-86
2021/08/08 03:07:40;;;;;;;0.80;0.63;;;;;;;24.06;47.25;97700.53;5039090;28;20280;-88
2021/08/08 03:10:10;;;;;;;0.60;0.60;;;;;;;24.06;47.42;97694.38;5021753;28;20618;-86
2021/08/08 03:12:37;;;;;;;0.70;0.60;;;;;;;24.08;47.42;97692.31;5038526;28;20193;-86
2021/08/08 03:15:05;;;;;;;0.70;0.70;;;;;;;24.10;47.17;97691.06;5055782;28;20236;-86
2021/08/08 03:17:32;;;;;;;0.70;0.70;;;;;;;24.08;47.52;97702.97;5021676;28;20262;-86
2021/08/08 03:19:58;;;;;;;0.50;0.50;;;;;;;24.01;47.54;97695.00;5037988;28;20287;-86
2021/08/08 03:22:26;;;;;;;0.70;0.70;;;;;;;23.99;47.51;97698.94;5038047;28;20192;-87
2021/08/08 03:24:52;;;;;;;0.60;0.60;;;;;;;24.03;47.37;97713.47;5021837;28;20637;-86
2021/08/08 03:27:19;;;;;;;0.70;0.70;;;;;;;23.99;47.59;97718.38;5037199;28;20207;-87
2021/08/08 03:29:47;;;;;;;1.07;0.50;;;;;;;24.03;47.45;97719.59;5037890;28;20254;-87
2021/08/08 03:32:13;;;;;;;0.60;0.60;;;;;;;23.96;47.49;97724.97;5037736;28;20197;-86
2021/08/08 03:34:40;;;;;;;0.60;0.60;;;;;;;23.91;47.81;97718.66;5037542;28;20213;-86
2021/08/08 03:37:07;;;;;;;0.53;0.53;;;;;;;23.93;47.80;97724.56;5037733;28;20507;-87
2021/08/08 03:39:37;;;;;;;0.70;0.70;;;;;;;23.95;47.61;97722.50;5037737;28;20292;-86
2021/08/08 03:42:05;;;;;;;0.40;0.40;;;;;;;23.96;47.71;97732.13;5037552;28;20251;-86
2021/08/08 03:44:32;;;;;;;0.70;0.70;;;;;;;23.93;47.83;97737.91;5037548;28;20574;-88
2021/08/08 03:46:59;;;;;;;0.60;0.60;;;;;;;23.93;47.38;97738.72;5021270;28;20205;-86
2021/08/08 03:49:25;;;;;;;1.10;0.70;;;;;;;24.03;47.55;97727.59;5037608;28;20201;-87
2021/08/08 03:51:52;;;;;;;1.60;0.70;;;;;;;23.98;47.46;97722.06;5037386;28;20193;-87
2021/08/08 03:54:19;;;;;;;1.03;0.73;;;;;;;23.96;47.54;97742.78;5037592;28;20522;-87
2021/08/08 03:56:46;;;;;;;0.80;0.60;;;;;;;23.99;47.45;97746.91;5021132;28;20271;-87
2021/08/08 03:59:13;;;;;;;0.60;0.60;;;;;;;23.99;47.31;97747.69;5037268;28;20511;-86
2021/08/08 04:01:40;;;;;;;0.93;0.50;;;;;;;23.95;47.60;97754.50;5037276;28;20205;-86
2021/08/08 04:04:07;;;;;;;0.50;0.50;;;;;;;23.96;47.73;97748.13;5021029;28;20190;-86
2021/08/08 04:06:33;;;;;;;0.60;0.60;;;;;;;23.95;47.61;97752.63;5055098;28;20190;-87
2021/08/08 04:09:00;;;;;;;0.60;0.60;;;;;;;23.96;47.42;97748.97;5020770;28;20211;-87
2021/08/08 04:11:26;;;;;;;0.60;0.60;;;;;;;23.97;47.55;97749.75;5037365;28;20204;-87
2021/08/08 04:13:53;;;;;;;0.70;0.70;;;;;;;23.94;47.61;97745.66;5037419;28;20292;-87
2021/08/08 04:16:20;;;;;;;0.60;0.60;;;;;;;23.94;47.48;97750.19;5037842;28;20255;-87
2021/08/08 04:18:47;;;;;;;0.67;0.57;;;;;;;23.94;47.46;97755.53;5020777;28;20295;-87
2021/08/08 04:21:13;;;;;;;0.47;0.47;;;;;;;23.93;47.46;97762.69;5054660;28;20521;-87
2021/08/08 04:23:41;;;;;;;1.23;0.70;;;;;;;23.94;47.62;97769.66;5037088;28;20189;-88
2021/08/08 04:26:08;;;;;;;0.70;0.70;;;;;;;23.96;47.55;97764.13;5037430;28;20206;-87
2021/08/08 04:28:39;;;;;;;0.60;0.60;;;;;;;23.96;47.59;97769.44;5020899;28;20190;-88
2021/08/08 04:31:07;;;;;;;0.70;0.70;;;;;;;24.05;47.24;97778.88;5020779;28;20200;-88
2021/08/08 04:33:36;;;;;;;1.30;0.70;;;;;;;24.08;47.06;97767.78;5036897;28;20193;-87
2021/08/08 04:36:04;;;;;;;0.50;0.50;;;;;;;24.09;47.20;97774.75;5036904;28;20216;-87
2021/08/08 04:38:31;;;;;;;1.20;0.70;;;;;;;24.07;47.11;97782.13;5039505;28;20201;-87
2021/08/08 04:40:58;;;;;;;0.70;0.70;;;;;;;24.05;47.17;97781.53;5024565;28;20197;-87
2021/08/08 04:43:25;;;;;;;0.50;0.50;;;;;;;24.02;47.42;97783.78;5024514;28;20199;-87
2021/08/08 04:45:51;;;;;;;0.70;0.60;;;;;;;24.03;47.37;97786.22;5040916;28;20185;-87
2021/08/08 04:48:18;;;;;;;0.70;0.60;;;;;;;24.05;47.17;97780.69;5024632;28;20189;-87
2021/08/08 04:50:47;;;;;;;0.67;0.60;;;;;;;24.08;47.12;97782.94;5040789;28;20204;-87
2021/08/08 04:53:15;;;;;;;0.53;0.53;;;;;;;24.02;47.32;97791.75;5040632;28;20193;-87
2021/08/08 04:55:44;;;;;;;1.13;0.67;;;;;;;24.07;47.02;97798.13;5024246;28;20224;-88
2021/08/08 04:58:11;;;;;;;0.60;0.50;;;;;;;24.13;47.12;97795.63;5040767;28;20288;-89
2021/08/08 05:00:38;;;;;;;0.93;0.60;;;;;;;24.12;47.04;97792.13;5024284;28;20194;-86
2021/08/08 05:03:04;;;;;;;0.60;0.60;;;;;;;24.16;46.93;97782.69;5040534;28;20205;-86
2021/08/08 05:05:33;;;;;;;0.60;0.60;;;;;;;24.22;46.52;97789.03;5041039;28;20189;-86
2021/08/08 05:08:00;;;;;;;0.80;0.80;;;;;;;24.18;46.96;97798.47;5040481;28;20190;-86
2021/08/08 05:10:29;;;;;;;0.60;0.60;;;;;;;24.21;46.73;97808.72;5041592;28;20268;-87
2021/08/08 05:12:57;;;;;;;0.67;0.67;;;;;;;24.22;46.77;97799.69;5040750;28;20296;-87
2021/08/08 05:15:24;;;;;;;0.70;0.70;;;;;;;24.25;46.69;97809.91;5040595;28;20275;-87
2021/08/08 05:17:55;;;;;;;1.03;0.60;;;;;;;24.34;46.55;97813.94;5041731;28;20192;-86
2021/08/08 05:20:21;;;;;;;0.70;0.60;;;;;;;24.30;46.56;97807.41;5024069;28;20201;-87
2021/08/08 05:22:48;;;;;;;0.83;0.60;;;;;;;24.35;46.63;97807.56;5025034;28;20197;-86
2021/08/08 05:25:15;;;;;;;0.50;0.50;;;;;;;24.38;46.44;97814.34;5040899;28;20190;-87
2021/08/08 05:27:42;;;;;;;1.07;0.60;;;;;;;24.34;46.56;97818.47;5024298;28;20194;-87
2021/08/08 05:30:12;;;;;;;0.70;0.70;;;;;;;24.35;46.64;97820.91;5024261;28;20232;-88
2021/08/08 05:32:40;;;;;;;0.63;0.60;;;;;;;24.40;46.54;97822.13;5040314;28;20255;-87
2021/08/08 05:35:07;;;;;;;0.70;0.63;;;;;;;24.44;46.16;97826.00;5040028;28;20271;-87
2021/08/08 05:37:34;;;;;;;0.50;0.50;;;;;;;24.36;46.60;97822.53;5040113;28;20284;-88
2021/08/08 05:40:05;;;;;;;0.97;0.70;;;;;;;24.36;46.82;97843.06;5040203;28;20272;-87
2021/08/08 05:42:36;;;;;;;0.70;0.70;;;;;;;24.34;46.96;97845.13;5040252;28;20189;-87
2021/08/08 05:45:05;;;;;;;0.60;0.60;;;;;;;24.32;46.78;97842.69;5040118;28;20597;-88
2021/08/08 05:47:31;;;;;;;0.60;0.60;;;;;;;24.36;46.66;97843.06;5023769;28;20197;-88
2021/08/08 05:49:58;;;;;;;1.43;0.73;;;;;;;24.39;46.63;97847.97;5039050;28;20516;-88
2021/08/08 05:52:25;;;;;;;0.80;0.60;;;;;;;24.38;46.58;97852.50;5022549;28;20189;-88
2021/08/08 05:54:51;;;;;;;0.70;0.70;;;;;;;24.46;46.53;97854.09;5022816;28;20224;-89
2021/08/08 05:57:18;;;;;;;0.93;0.80;;;;;;;24.49;46.57;97858.16;5039385;28;20189;-88
2021/08/08 05:59:44;;;;;;;0.50;0.50;;;;;;;24.47;46.60;97858.41;5039792;28;20197;-87
2021/08/08 06:02:11;;;;;;;1.00;0.70;;;;;;;24.49;46.56;97860.84;5039822;28;20239;-87
2021/08/08 06:04:37;;;;;;;0.90;0.63;;;;;;;24.50;46.51;97854.47;5039757;28;20186;-88
2021/08/08 06:07:04;;;;;;;1.30;0.70;;;;;;;24.53;46.44;97862.06;5039738;28;20193;-88
2021/08/08 06:09:30;;;;;;;1.33;0.60;;;;;;;24.55;46.65;97868.00;5039401;28;20201;-89
2021/08/08 06:11:57;;;;;;;0.93;0.60;;;;;;;24.56;46.39;97880.28;5039444;28;20666;-88
2021/08/08 06:14:24;;;;;;;1.13;0.90;;;;;;;24.59;46.64;97877.19;5023424;28;20217;-89
2021/08/08 06:16:51;;;;;;;1.37;0.60;;;;;;;24.64;46.51;97882.69;5039552;28;20315;-88
2021/08/08 06:19:17;;;;;;;1.50;0.70;;;;;;;24.62;46.44;97879.44;5022819;28;20197;-88
2021/08/08 06:21:45;;;;;;;0.70;0.70;;;;;;;24.62;46.53;97881.28;5039166;28;20288;-89
2021/08/08 06:24:16;;;;;;;0.80;0.80;;;;;;;24.59;46.81;97882.53;5023806;28;20279;-87
2021/08/08 06:26:42;;;;;;;1.60;0.77;;;;;;;24.58;46.72;97894.22;5023162;28;20686;-86
2021/08/08 06:29:09;;;;;;;2.60;1.10;;;;;;;24.55;46.66;97893.84;5038774;28;20193;-87
2021/08/08 06:31:36;;;;;;;1.90;1.00;;;;;;;24.53;46.62;97891.41;5038882;28;20200;-87
2021/08/08 06:34:03;;;;;;;0.97;0.70;;;;;;;24.45;46.73;97889.81;5038947;28;20510;-89
2021/08/08 06:36:31;;;;;;;1.23;0.80;;;;;;;24.42;46.85;97889.41;5039041;28;20221;-87
2021/08/08 06:39:03;;;;;;;1.10;0.73;;;;;;;24.43;46.66;97891.84;5022413;28;20196;-87
2021/08/08 06:41:30;;;;;;;0.87;0.70;;;;;;;24.47;46.94;97886.91;5038874;28;20607;-86
2021/08/08 06:43:57;;;;;;;1.33;0.80;;;;;;;24.47;46.84;97901.06;5038668;28;20192;-87
2021/08/08 06:46:24;;;;;;;1.07;0.73;;;;;;;24.46;47.34;97896.78;5022389;28;20211;-87
2021/08/08 06:48:51;;;;;;;1.60;0.90;;;;;;;24.47;47.13;97897.56;5022385;28;20271;-87
2021/08/08 06:51:18;;;;;;;0.80;0.70;;;;;;;24.48;47.10;97893.88;5038726;28;20193;-87
2021/08/08 06:53:45;;;;;;;0.70;0.70;;;;;;;24.47;47.11;97898.41;5038354;28;20288;-86
2021/08/08 06:56:11;;;;;;;1.40;0.80;;;;;;;24.45;47.60;97907.63;5022035;28;20304;-87
2021/08/08 06:58:38;;;;;;;4.23;1.00;;;;;;;24.49;47.49;97900.84;5038898;28;20200;-86
2021/08/08 07:01:05;;;;;;;0.80;0.80;;;;;;;24.60;46.89;97896.66;5022105;28;20622;-86
2021/08/08 07:03:31;;;;;;;1.13;0.90;;;;;;;24.63;46.83;97913.06;5038396;28;20622;-87
2021/08/08 07:05:58;;;;;;;1.90;0.80;;;;;;;24.67;46.62;97905.47;5055940;28;20251;-87
2021/08/08 07:08:25;;;;;;;1.30;0.90;;;;;;;24.68;46.70;97915.09;5037986;28;20205;-86
2021/08/08 07:10:52;;;;;;;3.33;1.00;;;;;;;24.67;46.79;97903.59;5038099;28;20689;-86
2021/08/08 07:13:18;;;;;;;3.33;0.93;;;;;;;24.65;46.56;97916.34;5038683;28;20204;-86
2021/08/08 07:15:45;;;;;;;1.43;1.00;;;;;;;24.63;46.49;97921.06;5021465;28;20231;-87
2021/08/08 07:18:12;;;;;;;2.33;0.80;;;;;;;24.59;46.64;97917.22;5021833;28;20198;-87
2021/08/08 07:20:39;;;;;;;1.67;1.10;;;;;;;24.59;46.60;97927.88;5037895;28;20189;-86
2021/08/08 07:23:06;;;;;;;2.13;1.10;;;;;;;24.57;46.66;97918.44;5021696;28;20189;-87
2021/08/08 07:25:33;;;;;;;2.00;1.00;;;;;;;24.55;46.76;97926.69;5021211;28;20221;-88
2021/08/08 07:28:00;;;;;;;3.17;1.40;;;;;;;24.53;46.68;97928.75;5037896;28;20246;-87
2021/08/08 07:30:27;;;;;;;3.17;1.10;;;;;;;24.52;46.80;97927.91;5022108;28;20634;-89
2021/08/08 07:32:53;;;;;;;21.17;10.43;;;;;;;24.48;47.08;97936.53;5022832;28;20288;-88
2021/08/08 07:35:22;;;;;;;3.87;2.00;;;;;;;24.50;46.81;97929.97;5039405;28;20213;-87
2021/08/08 07:37:48;;;;;;;1.93;1.43;;;;;;;24.69;46.42;97939.91;5037683;28;20280;-87
2021/08/08 07:40:15;;;;;;;29.17;15.07;;;;;;;24.69;46.70;97940.75;5037697;28;20197;-88
2021/08/08 07:42:50;;;;;;;8.37;4.10;;;;;;;24.66;46.26;97957.19;5037546;28;20580;-87
2021/08/08 07:45:19;;;;;;;8.60;4.23;;;;;;;24.67;46.33;97961.50;5037195;28;20279;-88
2021/08/08 07:47:47;;;;;;;12.30;5.70;;;;;;;24.70;46.19;97957.59;5021282;28;20193;-88
2021/08/08 07:50:14;;;;;;;18.50;9.27;;;;;;;24.69;46.58;97958.59;5037820;28;20197;-88
2021/08/08 07:52:40;;;;;;;15.70;6.90;;;;;;;24.65;46.67;97953.69;5037489;28;20285;-88
2021/08/08 07:55:08;;;;;;;11.47;6.20;;;;;;;24.66;46.66;97955.31;5037295;28;20590;-88
2021/08/08 07:57:35;;;;;;;18.40;9.53;;;;;;;24.67;46.53;97959.63;5054954;28;20200;-88
2021/08/08 08:00:04;;;;;;;16.23;9.63;;;;;;;24.64;46.75;97959.25;5037333;28;20508;-87
2021/08/08 08:02:32;;;;;;;13.30;6.80;;;;;;;24.62;46.61;97956.78;5038030;28;20194;-88
2021/08/08 08:04:59;;;;;;;17.57;10.30;;;;;;;24.63;46.63;97974.44;5021027;28;20189;-87
2021/08/08 08:07:26;;;;;;;12.53;6.27;;;;;;;24.70;46.42;97970.94;5037312;28;20208;-88
2021/08/08 08:09:53;;;;;;;15.20;7.77;;;;;;;24.74;46.20;97967.59;5037248;28;20185;-88
2021/08/08 08:12:19;;;;;;;12.13;6.60;;;;;;;24.86;46.01;97965.13;5036897;28;20197;-88
2021/08/08 08:14:46;;;;;;;14.73;7.90;;;;;;;24.68;46.30;97963.13;5037156;28;20197;-88
2021/08/08 08:17:13;;;;;;;11.83;6.80;;;;;;;24.74;46.28;97972.13;5020913;28;20204;-89
2021/08/08 08:19:39;;;;;;;11.70;6.87;;;;;;;24.78;46.19;97970.69;5037351;28;20212;-88
2021/08/08 08:22:06;;;;;;;11.63;7.27;;;;;;;24.77;46.27;97977.91;5037333;28;20201;-87
2021/08/08 08:24:32;;;;;;;8.97;6.53;;;;;;;24.77;46.19;97977.91;5037067;28;20205;-89
2021/08/08 08:26:59;;;;;;;11.20;6.77;;;;;;;24.82;45.76;97985.22;5020782;28;20591;-88
2021/08/08 08:29:26;;;;;;;12.60;6.60;;;;;;;24.81;45.96;97986.28;5020928;28;20255;-88
2021/08/08 08:31:53;;;;;;;9.50;5.70;;;;;;;24.80;45.84;97989.97;5037064;28;20201;-88
2021/08/08 08:34:19;;;;;;;11.43;6.77;;;;;;;24.78;46.05;97986.69;5036998;28;20205;-88
2021/08/08 08:36:46;;;;;;;11.03;6.70;;;;;;;24.77;46.08;97990.41;5020637;28;20715;-88
2021/08/08 08:39:13;;;;;;;12.27;6.50;;;;;;;24.73;46.13;97997.19;5020728;28;20224;-87
2021/08/08 08:41:40;;;;;;;9.27;5.83;;;;;;;24.76;45.92;97996.78;5020732;28;20614;-88
2021/08/08 08:44:07;;;;;;;10.33;5.67;;;;;;;24.80;45.90;98008.66;5020638;28;20523;-89
2021/08/08 08:46:36;;;;;;;12.33;6.27;;;;;;;24.83;45.83;98010.88;5020638;28;20193;-89
2021/08/08 08:49:03;;;;;;;10.63;5.97;;;;;;;24.87;45.82;98003.28;5036735;28;20196;-88
2021/08/08 08:51:45;;;;;;;10.87;6.30;;;;;;;24.92;45.67;98006.13;5036952;28;20553;-89
2021/08/08 08:54:12;;;;;;;9.40;5.87;;;;;;;24.92;45.57;98011.47;5036923;28;20189;-88
2021/08/08 08:56:39;;;;;;;9.43;5.80;;;;;;;24.90;45.72;98009.03;5020371;28;20209;-88
2021/08/08 08:59:05;;;;;;;8.97;5.67;;;;;;;24.95;45.49;98014.53;5020469;28;20204;-89
2021/08/08 09:01:32;;;;;;;10.07;5.57;;;;;;;24.94;45.73;98014.75;5036774;28;20201;-88
2021/08/08 09:04:00;;;;;;;8.30;4.83;;;;;;;24.89;45.68;98023.41;5036790;28;20199;-88
2021/08/08 09:06:28;;;;;;;8.00;5.20;;;;;;;24.91;45.49;98010.66;5020391;28;20199;-87
2021/08/08 09:08:55;;;;;;;10.80;5.93;;;;;;;24.89;45.64;98010.06;5036526;28;20216;-89
2021/08/08 09:11:22;;;;;;;7.50;4.80;;;;;;;24.88;45.60;98005.75;5036590;28;20201;-89
2021/08/08 09:13:57;;;;;;;9.50;5.77;;;;;;;24.88;45.56;98011.09;5036598;28;20266;-89
2021/08/08 09:16:52;;;;;;;7.47;4.70;;;;;;;24.89;45.47;98010.06;5054081;28;20269;-90
2021/08/08 09:19:29;;;;;;;7.37;4.80;;;;;;;24.88;45.73;98007.59;5020667;28;20189;-89
2021/08/08 09:22:01;;;;;;;7.63;5.07;;;;;;;24.88;45.42;98005.75;5036571;28;20194;-89
2021/08/08 09:24:34;;;;;;;8.43;5.07;;;;;;;24.94;45.37;98012.88;5021242;28;20342;-88
2021/08/08 09:27:06;;;;;;;7.90;4.87;;;;;;;24.99;45.14;98017.59;5040171;28;20194;-88
2021/08/08 09:29:35;;;;;;;8.23;4.57;;;;;;;24.99;45.14;98022.09;5040813;28;20204;-89
2021/08/08 09:32:03;;;;;;;8.30;4.50;;;;;;;25.01;45.64;98025.38;5039907;28;20289;-87
2021/08/08 09:34:35;;;;;;;8.50;4.73;;;;;;;24.98;45.31;98015.13;5039974;28;20292;-89
2021/08/08 09:37:05;;;;;;;8.57;4.77;;;;;;;24.97;45.49;98030.34;5039846;28;20626;-87
2021/08/08 09:39:35;;;;;;;8.37;5.20;;;;;;;24.94;45.65;98031.56;5023529;28;20656;-88
2021/08/08 09:42:22;;;;;;;9.40;5.13;;;;;;;24.94;45.50;98026.22;5039849;28;20193;-89
2021/08/08 09:44:59;;;;;;;8.00;4.80;;;;;;;24.94;45.71;98030.78;5040157;28;20196;-87
2021/08/08 09:47:46;;;;;;;7.20;4.47;;;;;;;24.93;45.53;98032.59;5039716;28;20185;-87
2021/08/08 09:50:17;;;;;;;6.57;4.30;;;;;;;24.97;45.75;98029.50;5023771;28;20185;-89
2021/08/08 09:53:17;;;;;;;6.80;4.20;;;;;;;24.99;45.46;98038.94;5040386;28;20213;-88
2021/08/08 09:55:44;;;;;;;6.27;4.10;;;;;;;24.93;45.80;98032.59;4981853;28;20213;-88
2021/08/08 09:58:10;;;;;;;7.33;4.20;;;;;;;24.98;45.70;98029.31;5058280;28;20193;-88
2021/08/08 10:00:40;;;;;;;6.23;4.40;;;;;;;25.00;45.74;98024.56;5039797;28;20197;-87
2021/08/08 10:03:11;;;;;;;6.73;4.17;;;;;;;25.01;45.63;98020.03;5039368;28;20193;-89
2021/08/08 10:05:40;;;;;;;6.73;4.33;;;;;;;25.02;45.27;98019.03;5039386;28;20208;-87
2021/08/08 10:08:17;;;;;;;6.07;4.00;;;;;;;25.03;45.44;98034.00;5022860;28;20532;-88
2021/08/08 10:10:46;;;;;;;6.17;3.87;;;;;;;24.99;45.14;98030.94;5022795;28;20271;-86
2021/08/08 10:13:36;;;;;;;4.77;3.80;;;;;;;24.95;45.53;98035.88;5039419;28;20276;-87
2021/08/08 10:16:09;;;;;;;6.33;3.67;;;;;;;24.92;45.49;98044.31;5039660;28;20217;-87
2021/08/08 10:18:39;;;;;;;5.20;3.67;;;;;;;24.84;45.76;98039.22;5039545;28;20193;-86
2021/08/08 10:21:08;;;;;;;5.63;3.87;;;;;;;24.83;46.00;98048.25;5040042;28;20178;-86
2021/08/08 10:23:36;;;;;;;8.27;4.07;;;;;;;24.80;46.08;98056.69;5039749;28;20189;-87
2021/08/08 10:26:04;;;;;;;4.67;3.30;;;;;;;24.76;45.66;98047.47;5056734;28;20190;-86
2021/08/08 10:28:31;;;;;;;6.53;3.67;;;;;;;24.77;45.98;98047.28;5039296;28;20591;-89
2021/08/08 10:31:03;;;;;;;6.53;3.67;;;;;;;24.83;45.77;98048.25;5039101;28;20656;-87
2021/08/08 10:33:30;;;;;;;5.00;3.53;;;;;;;24.85;45.78;98042.72;5039279;28;20235;-88
2021/08/08 10:35:56;;;;;;;4.93;3.50;;;;;;;24.90;45.55;98043.72;5038414;28;20528;-88
2021/08/08 10:38:23;;;;;;;6.07;3.70;;;;;;;24.89;45.57;98047.41;5056409;28;20189;-87
2021/08/08 10:40:50;;;;;;;6.43;3.43;;;;;;;24.93;45.17;98045.94;5038845;28;20200;-87
2021/08/08 10:43:28;;;;;;;4.43;3.23;;;;;;;25.03;45.15;98047.34;5039622;28;20193;-87
2021/08/08 10:46:09;;;;;;;5.07;3.50;;;;;;;25.02;45.23;98043.03;5039134;28;20200;-87
2021/08/08 10:48:38;;;;;;;4.93;3.30;;;;;;;25.06;45.32;98042.38;5038823;28;20194;-87
2021/08/08 10:51:21;;;;;;;4.30;3.33;;;;;;;25.08;45.03;98039.50;5039035;28;20236;-87
2021/08/08 10:54:08;;;;;;;6.80;3.50;;;;;;;25.14;44.75;98049.31;5056789;28;20264;-86
2021/08/08 10:56:43;;;;;;;6.33;3.50;;;;;;;25.15;44.84;98044.81;5038789;28;20584;-88
2021/08/08 10:59:15;;;;;;;4.10;3.30;;;;;;;25.13;45.12;98046.88;5056699;28;20227;-87
2021/08/08 11:01:42;;;;;;;4.37;3.20;;;;;;;25.10;44.95;98048.13;5039045;28;20201;-88
2021/08/08 11:04:09;;;;;;;4.40;3.10;;;;;;;25.06;45.38;98052.25;5056581;28;20254;-88
2021/08/08 11:06:36;;;;;;;5.67;2.90;;;;;;;24.94;45.10;98041.44;5041156;28;20188;-87
2021/08/08 11:09:05;;;;;;;5.50;2.70;;;;;;;24.88;45.01;98032.44;5064257;28;20211;-88
2021/08/08 11:11:34;;;;;;;4.50;2.60;;;;;;;24.76;44.87;98042.13;5044304;28;20642;-88
2021/08/08 11:14:17;;;;;;;4.53;2.57;;;;;;;24.72;44.69;98036.38;5021878;28;20201;-88
2021/08/08 11:16:57;;;;;;;4.20;2.50;;;;;;;24.70;45.16;98042.97;5038178;28;20221;-87
2021/08/08 11:19:35;;;;;;;5.40;2.63;;;;;;;24.61;45.02;98035.19;5038315;28;20193;-89
2021/08/08 11:22:13;;;;;;;4.97;3.03;;;;;;;24.60;44.92;98032.72;5038127;28;20189;-89
2021/08/08 11:24:43;;;;;;;4.90;2.40;;;;;;;24.54;44.89;98037.06;5038172;28;20197;-88
2021/08/08 11:27:10;;;;;;;4.17;2.47;;;;;;;24.52;45.08;98029.28;5037915;28;20189;-88
2021/08/08 11:29:37;;;;;;;4.70;2.63;;;;;;;24.55;45.07;98029.88;5037911;28;20197;-88
2021/08/08 11:32:07;;;;;;;3.90;2.43;;;;;;;24.59;44.86;98031.91;5038200;28;20197;-89
2021/08/08 11:34:35;;;;;;;5.17;2.50;;;;;;;24.60;44.63;98044.22;5038492;28;20189;-87
2021/08/08 11:37:01;;;;;;;4.37;2.37;;;;;;;24.71;44.23;98047.28;5055582;28;20658;-87
2021/08/08 11:39:33;;;;;;;3.10;2.30;;;;;;;24.81;44.10;98042.31;5037808;28;20276;-89